sensor_id;sensor_type;location;lat;lon;timestamp;P1;durP1;ratioP1;P2;durP2;ratioP2
4047;SDS011;2038;51.728;6.674;2022-09-03T00:00:10;4.67;;;2.53;;
4047;SDS011;2038;51.728;6.674;2022-09-03T00:02:46;5.97;;;2.50;;
4047;SDS011;2038;51.728;6.674;2022-09-03T00:05:37;3.53;;;2.43;;
4047;SDS011;2038;51.728;6.674;2022-09-03T00:08:26;3.17;;;2.47;;
4047;SDS011;2038;51.728;6.674;2022-09-03T00:13:35;4.03;;;2.70;;
4047;SDS011;2038;51.728;6.674;2022-09-03T00:16:10;4.20;;;2.37;;
4047;SDS011;2038;51.728;6.674;2022-09-03T00:18:45;4.70;;;2.53;;
4047;SDS011;2038;51.728;6.674;2022-09-03T00:23:52;3.70;;;2.40;;
4047;SDS011;2038;51.728;6.674;2022-09-03T00:26:27;2.60;;;2.40;;
4047;SDS011;2038;51.728;6.674;2022-09-03T00:29:10;2.60;;;2.10;;
4047;SDS011;2038;51.728;6.674;2022-09-03T00:31:45;3.80;;;2.20;;
4047;SDS011;2038;51.728;6.674;2022-09-03T00:36:51;2.67;;;2.40;;
4047;SDS011;2038;51.728;6.674;2022-09-03T00:39:19;1.93;;;1.80;;
4047;SDS011;2038;51.728;6.674;2022-09-03T00:42:00;4.33;;;3.23;;
4047;SDS011;2038;51.728;6.674;2022-09-03T00:50:51;2.30;;;2.10;;
4047;SDS011;2038;51.728;6.674;2022-09-03T00:53:49;3.20;;;2.67;;
4047;SDS011;2038;51.728;6.674;2022-09-03T00:57:03;5.07;;;2.80;;
4047;SDS011;2038;51.728;6.674;2022-09-03T00:59:52;5.20;;;2.57;;
4047;SDS011;2038;51.728;6.674;2022-09-03T01:32:55;3.80;;;2.57;;
4047;SDS011;2038;51.728;6.674;2022-09-03T01:35:46;6.40;;;2.87;;
4047;SDS011;2038;51.728;6.674;2022-09-03T01:41:47;2.53;;;2.33;;
4047;SDS011;2038;51.728;6.674;2022-09-03T01:44:58;2.60;;;2.40;;
4047;SDS011;2038;51.728;6.674;2022-09-03T01:53:24;3.20;;;2.57;;
4047;SDS011;2038;51.728;6.674;2022-09-03T02:02:08;2.00;;;1.90;;
4047;SDS011;2038;51.728;6.674;2022-09-03T02:04:58;7.13;;;3.43;;
4047;SDS011;2038;51.728;6.674;2022-09-03T02:07:33;8.30;;;2.40;;
4047;SDS011;2038;51.728;6.674;2022-09-03T02:10:29;4.13;;;2.80;;
4047;SDS011;2038;51.728;6.674;2022-09-03T02:13:40;5.80;;;2.80;;
4047;SDS011;2038;51.728;6.674;2022-09-03T02:16:16;2.40;;;2.20;;
4047;SDS011;2038;51.728;6.674;2022-09-03T02:18:55;2.70;;;2.37;;
4047;SDS011;2038;51.728;6.674;2022-09-03T02:21:29;4.80;;;2.70;;
4047;SDS011;2038;51.728;6.674;2022-09-03T02:24:04;3.07;;;2.77;;
4047;SDS011;2038;51.728;6.674;2022-09-03T02:26:33;3.00;;;1.90;;
4047;SDS011;2038;51.728;6.674;2022-09-03T02:29:00;3.90;;;2.23;;
4047;SDS011;2038;51.728;6.674;2022-09-03T02:31:27;3.63;;;2.23;;
4047;SDS011;2038;51.728;6.674;2022-09-03T02:33:55;3.10;;;2.30;;
4047;SDS011;2038;51.728;6.674;2022-09-03T02:36:26;2.90;;;2.40;;
4047;SDS011;2038;51.728;6.674;2022-09-03T02:39:00;2.40;;;2.20;;
4047;SDS011;2038;51.728;6.674;2022-09-03T02:41:26;2.87;;;2.67;;
4047;SDS011;2038;51.728;6.674;2022-09-03T02:44:02;3.07;;;2.17;;
4047;SDS011;2038;51.728;6.674;2022-09-03T02:47:00;4.20;;;2.20;;
4047;SDS011;2038;51.728;6.674;2022-09-03T02:49:30;2.63;;;2.20;;
4047;SDS011;2038;51.728;6.674;2022-09-03T02:52:04;2.47;;;2.27;;
4047;SDS011;2038;51.728;6.674;2022-09-03T02:54:36;5.53;;;3.30;;
4047;SDS011;2038;51.728;6.674;2022-09-03T02:57:07;2.90;;;2.63;;
4047;SDS011;2038;51.728;6.674;2022-09-03T02:59:37;2.93;;;2.63;;
4047;SDS011;2038;51.728;6.674;2022-09-03T03:02:04;5.33;;;2.97;;
4047;SDS011;2038;51.728;6.674;2022-09-03T03:04:30;3.57;;;2.30;;
4047;SDS011;2038;51.728;6.674;2022-09-03T03:06:57;3.97;;;2.37;;
4047;SDS011;2038;51.728;6.674;2022-09-03T03:09:24;3.77;;;2.30;;
4047;SDS011;2038;51.728;6.674;2022-09-03T03:11:51;2.07;;;1.87;;
4047;SDS011;2038;51.728;6.674;2022-09-03T03:14:19;4.60;;;2.57;;
4047;SDS011;2038;51.728;6.674;2022-09-03T03:16:46;2.70;;;2.37;;
4047;SDS011;2038;51.728;6.674;2022-09-03T03:19:13;3.10;;;2.30;;
4047;SDS011;2038;51.728;6.674;2022-09-03T03:21:40;2.73;;;2.37;;
4047;SDS011;2038;51.728;6.674;2022-09-03T03:24:06;7.80;;;2.50;;
4047;SDS011;2038;51.728;6.674;2022-09-03T03:26:33;2.90;;;2.60;;
4047;SDS011;2038;51.728;6.674;2022-09-03T03:29:00;3.00;;;2.43;;
4047;SDS011;2038;51.728;6.674;2022-09-03T03:31:30;2.67;;;2.47;;
4047;SDS011;2038;51.728;6.674;2022-09-03T03:33:58;3.33;;;2.40;;
4047;SDS011;2038;51.728;6.674;2022-09-03T03:36:27;3.40;;;3.10;;
4047;SDS011;2038;51.728;6.674;2022-09-03T03:38:57;2.30;;;2.10;;
4047;SDS011;2038;51.728;6.674;2022-09-03T03:41:29;5.43;;;2.33;;
4047;SDS011;2038;51.728;6.674;2022-09-03T03:43:59;6.57;;;2.50;;
4047;SDS011;2038;51.728;6.674;2022-09-03T03:46:32;5.10;;;2.70;;
4047;SDS011;2038;51.728;6.674;2022-09-03T03:49:01;4.23;;;2.40;;
4047;SDS011;2038;51.728;6.674;2022-09-03T03:51:30;3.43;;;2.23;;
4047;SDS011;2038;51.728;6.674;2022-09-03T03:53:57;4.30;;;2.37;;
4047;SDS011;2038;51.728;6.674;2022-09-03T03:56:24;4.90;;;2.70;;
4047;SDS011;2038;51.728;6.674;2022-09-03T03:58:51;3.73;;;2.23;;
4047;SDS011;2038;51.728;6.674;2022-09-03T04:01:23;2.73;;;2.37;;
4047;SDS011;2038;51.728;6.674;2022-09-03T04:03:53;2.90;;;2.60;;
4047;SDS011;2038;51.728;6.674;2022-09-03T04:06:21;2.47;;;2.27;;
4047;SDS011;2038;51.728;6.674;2022-09-03T04:08:47;3.50;;;2.83;;
4047;SDS011;2038;51.728;6.674;2022-09-03T04:11:16;2.60;;;2.40;;
4047;SDS011;2038;51.728;6.674;2022-09-03T04:13:45;2.50;;;2.23;;
4047;SDS011;2038;51.728;6.674;2022-09-03T04:16:15;2.67;;;2.47;;
4047;SDS011;2038;51.728;6.674;2022-09-03T04:18:48;3.60;;;2.50;;
4047;SDS011;2038;51.728;6.674;2022-09-03T04:21:16;3.50;;;2.37;;
4047;SDS011;2038;51.728;6.674;2022-09-03T04:23:49;2.70;;;2.27;;
4047;SDS011;2038;51.728;6.674;2022-09-03T04:26:21;3.83;;;2.30;;
4047;SDS011;2038;51.728;6.674;2022-09-03T04:28:50;2.10;;;1.90;;
4047;SDS011;2038;51.728;6.674;2022-09-03T04:31:18;2.73;;;2.53;;
4047;SDS011;2038;51.728;6.674;2022-09-03T04:33:45;7.70;;;2.00;;
4047;SDS011;2038;51.728;6.674;2022-09-03T04:36:16;4.13;;;2.60;;
4047;SDS011;2038;51.728;6.674;2022-09-03T04:38:45;3.20;;;2.40;;
4047;SDS011;2038;51.728;6.674;2022-09-03T04:41:17;3.13;;;2.33;;
4047;SDS011;2038;51.728;6.674;2022-09-03T04:43:52;3.07;;;2.77;;
4047;SDS011;2038;51.728;6.674;2022-09-03T04:46:22;4.30;;;3.60;;
4047;SDS011;2038;51.728;6.674;2022-09-03T04:48:51;2.50;;;2.30;;
4047;SDS011;2038;51.728;6.674;2022-09-03T04:51:19;3.50;;;2.80;;
4047;SDS011;2038;51.728;6.674;2022-09-03T04:53:54;7.10;;;3.03;;
4047;SDS011;2038;51.728;6.674;2022-09-03T04:56:26;4.27;;;2.20;;
4047;SDS011;2038;51.728;6.674;2022-09-03T04:58:56;3.13;;;2.20;;
4047;SDS011;2038;51.728;6.674;2022-09-03T05:01:26;2.43;;;2.23;;
4047;SDS011;2038;51.728;6.674;2022-09-03T05:03:55;2.97;;;2.70;;
4047;SDS011;2038;51.728;6.674;2022-09-03T05:06:23;3.63;;;2.20;;
4047;SDS011;2038;51.728;6.674;2022-09-03T05:08:51;6.77;;;2.20;;
4047;SDS011;2038;51.728;6.674;2022-09-03T05:11:19;6.53;;;2.63;;
4047;SDS011;2038;51.728;6.674;2022-09-03T05:13:46;2.10;;;1.90;;
4047;SDS011;2038;51.728;6.674;2022-09-03T05:16:18;14.30;;;2.87;;
4047;SDS011;2038;51.728;6.674;2022-09-03T05:18:46;2.03;;;1.93;;
4047;SDS011;2038;51.728;6.674;2022-09-03T05:21:16;5.03;;;2.83;;
4047;SDS011;2038;51.728;6.674;2022-09-03T05:23:43;4.53;;;1.90;;
4047;SDS011;2038;51.728;6.674;2022-09-03T05:26:15;14.23;;;2.53;;
4047;SDS011;2038;51.728;6.674;2022-09-03T05:28:44;2.50;;;2.00;;
4047;SDS011;2038;51.728;6.674;2022-09-03T05:31:12;2.73;;;2.53;;
4047;SDS011;2038;51.728;6.674;2022-09-03T05:33:44;2.97;;;2.67;;
4047;SDS011;2038;51.728;6.674;2022-09-03T05:36:14;2.63;;;2.43;;
4047;SDS011;2038;51.728;6.674;2022-09-03T05:38:44;2.20;;;2.00;;
4047;SDS011;2038;51.728;6.674;2022-09-03T05:41:14;3.40;;;2.60;;
4047;SDS011;2038;51.728;6.674;2022-09-03T05:43:42;2.13;;;2.03;;
4047;SDS011;2038;51.728;6.674;2022-09-03T05:46:10;4.10;;;2.30;;
4047;SDS011;2038;51.728;6.674;2022-09-03T05:48:42;3.93;;;2.50;;
4047;SDS011;2038;51.728;6.674;2022-09-03T05:51:12;2.67;;;2.30;;
4047;SDS011;2038;51.728;6.674;2022-09-03T05:53:41;4.40;;;2.07;;
4047;SDS011;2038;51.728;6.674;2022-09-03T05:56:14;5.97;;;2.80;;
4047;SDS011;2038;51.728;6.674;2022-09-03T05:58:47;2.70;;;2.47;;
4047;SDS011;2038;51.728;6.674;2022-09-03T06:01:20;2.87;;;2.50;;
4047;SDS011;2038;51.728;6.674;2022-09-03T06:03:54;5.13;;;2.77;;
4047;SDS011;2038;51.728;6.674;2022-09-03T06:06:33;2.13;;;2.00;;
4047;SDS011;2038;51.728;6.674;2022-09-03T06:09:12;5.90;;;2.33;;
4047;SDS011;2038;51.728;6.674;2022-09-03T06:11:42;2.73;;;2.53;;
4047;SDS011;2038;51.728;6.674;2022-09-03T06:14:10;2.80;;;2.27;;
4047;SDS011;2038;51.728;6.674;2022-09-03T06:16:39;10.07;;;2.40;;
4047;SDS011;2038;51.728;6.674;2022-09-03T06:19:09;3.20;;;2.50;;
4047;SDS011;2038;51.728;6.674;2022-09-03T06:21:39;3.43;;;3.00;;
4047;SDS011;2038;51.728;6.674;2022-09-03T06:24:08;3.13;;;2.33;;
4047;SDS011;2038;51.728;6.674;2022-09-03T06:26:38;5.50;;;2.27;;
4047;SDS011;2038;51.728;6.674;2022-09-03T06:29:04;7.57;;;2.87;;
4047;SDS011;2038;51.728;6.674;2022-09-03T06:31:31;12.70;;;2.20;;
4047;SDS011;2038;51.728;6.674;2022-09-03T06:33:57;6.27;;;2.37;;
4047;SDS011;2038;51.728;6.674;2022-09-03T06:36:24;2.03;;;1.80;;
4047;SDS011;2038;51.728;6.674;2022-09-03T06:38:51;5.07;;;2.90;;
4047;SDS011;2038;51.728;6.674;2022-09-03T06:41:21;2.93;;;2.50;;
4047;SDS011;2038;51.728;6.674;2022-09-03T06:43:51;4.27;;;2.23;;
4047;SDS011;2038;51.728;6.674;2022-09-03T06:46:21;4.50;;;2.30;;
4047;SDS011;2038;51.728;6.674;2022-09-03T06:48:49;2.87;;;1.60;;
4047;SDS011;2038;51.728;6.674;2022-09-03T06:51:21;4.83;;;1.77;;
4047;SDS011;2038;51.728;6.674;2022-09-03T06:53:51;4.43;;;2.23;;
4047;SDS011;2038;51.728;6.674;2022-09-03T06:56:27;6.00;;;1.90;;
4047;SDS011;2038;51.728;6.674;2022-09-03T06:58:54;4.80;;;2.40;;
4047;SDS011;2038;51.728;6.674;2022-09-03T07:01:28;1.83;;;1.70;;
4047;SDS011;2038;51.728;6.674;2022-09-03T07:04:04;2.93;;;2.23;;
4047;SDS011;2038;51.728;6.674;2022-09-03T07:06:35;4.30;;;2.00;;
4047;SDS011;2038;51.728;6.674;2022-09-03T07:09:07;1.90;;;1.60;;
4047;SDS011;2038;51.728;6.674;2022-09-03T07:11:36;7.70;;;2.83;;
4047;SDS011;2038;51.728;6.674;2022-09-03T07:14:10;4.87;;;1.90;;
4047;SDS011;2038;51.728;6.674;2022-09-03T07:16:37;9.57;;;2.13;;
4047;SDS011;2038;51.728;6.674;2022-09-03T07:19:05;3.83;;;1.90;;
4047;SDS011;2038;51.728;6.674;2022-09-03T07:21:33;5.10;;;2.27;;
4047;SDS011;2038;51.728;6.674;2022-09-03T07:24:01;2.03;;;1.83;;
4047;SDS011;2038;51.728;6.674;2022-09-03T07:26:30;1.80;;;1.37;;
4047;SDS011;2038;51.728;6.674;2022-09-03T07:29:00;1.93;;;1.73;;
4047;SDS011;2038;51.728;6.674;2022-09-03T07:31:30;3.70;;;2.63;;
4047;SDS011;2038;51.728;6.674;2022-09-03T07:34:07;2.60;;;1.90;;
4047;SDS011;2038;51.728;6.674;2022-09-03T07:36:38;3.93;;;2.03;;
4047;SDS011;2038;51.728;6.674;2022-09-03T07:39:07;9.17;;;2.03;;
4047;SDS011;2038;51.728;6.674;2022-09-03T07:41:36;2.30;;;1.70;;
4047;SDS011;2038;51.728;6.674;2022-09-03T07:44:03;2.00;;;1.50;;
4047;SDS011;2038;51.728;6.674;2022-09-03T07:46:33;7.47;;;1.90;;
4047;SDS011;2038;51.728;6.674;2022-09-03T07:49:02;8.23;;;2.03;;
4047;SDS011;2038;51.728;6.674;2022-09-03T07:51:31;2.30;;;1.70;;
4047;SDS011;2038;51.728;6.674;2022-09-03T07:54:03;3.57;;;2.00;;
4047;SDS011;2038;51.728;6.674;2022-09-03T07:56:34;1.70;;;1.50;;
4047;SDS011;2038;51.728;6.674;2022-09-03T07:59:02;1.60;;;1.50;;
4047;SDS011;2038;51.728;6.674;2022-09-03T08:01:29;4.60;;;1.50;;
4047;SDS011;2038;51.728;6.674;2022-09-03T08:03:58;1.60;;;1.43;;
4047;SDS011;2038;51.728;6.674;2022-09-03T08:06:27;6.57;;;1.20;;
4047;SDS011;2038;51.728;6.674;2022-09-03T08:08:57;2.93;;;1.87;;
4047;SDS011;2038;51.728;6.674;2022-09-03T08:11:28;3.47;;;2.20;;
4047;SDS011;2038;51.728;6.674;2022-09-03T08:16:31;4.40;;;1.63;;
4047;SDS011;2038;51.728;6.674;2022-09-03T08:19:04;3.70;;;2.10;;
4047;SDS011;2038;51.728;6.674;2022-09-03T08:21:31;1.83;;;1.50;;
4047;SDS011;2038;51.728;6.674;2022-09-03T08:23:57;2.10;;;1.43;;
4047;SDS011;2038;51.728;6.674;2022-09-03T08:26:27;3.10;;;1.50;;
4047;SDS011;2038;51.728;6.674;2022-09-03T08:28:56;3.00;;;1.97;;
4047;SDS011;2038;51.728;6.674;2022-09-03T08:31:23;3.70;;;1.60;;
4047;SDS011;2038;51.728;6.674;2022-09-03T08:33:52;3.87;;;2.00;;
4047;SDS011;2038;51.728;6.674;2022-09-03T08:36:21;2.13;;;1.70;;
4047;SDS011;2038;51.728;6.674;2022-09-03T08:38:57;5.87;;;2.43;;
4047;SDS011;2038;51.728;6.674;2022-09-03T08:47:34;3.33;;;1.70;;
4047;SDS011;2038;51.728;6.674;2022-09-03T08:50:11;6.30;;;2.03;;
4047;SDS011;2038;51.728;6.674;2022-09-03T08:55:37;4.03;;;2.13;;
4047;SDS011;2038;51.728;6.674;2022-09-03T08:58:14;6.63;;;1.70;;
4047;SDS011;2038;51.728;6.674;2022-09-03T09:06:38;5.47;;;2.10;;
4047;SDS011;2038;51.728;6.674;2022-09-03T09:15:25;3.23;;;2.37;;
4047;SDS011;2038;51.728;6.674;2022-09-03T09:21:36;3.13;;;2.07;;
4047;SDS011;2038;51.728;6.674;2022-09-03T09:24:25;6.60;;;2.17;;
4047;SDS011;2038;51.728;6.674;2022-09-03T09:27:02;2.93;;;1.90;;
4047;SDS011;2038;51.728;6.674;2022-09-03T09:29:31;5.17;;;1.83;;
4047;SDS011;2038;51.728;6.674;2022-09-03T09:32:03;2.47;;;1.93;;
4047;SDS011;2038;51.728;6.674;2022-09-03T09:34:37;12.90;;;2.37;;
4047;SDS011;2038;51.728;6.674;2022-09-03T09:37:06;3.30;;;1.80;;
4047;SDS011;2038;51.728;6.674;2022-09-03T09:39:37;3.20;;;2.13;;
4047;SDS011;2038;51.728;6.674;2022-09-03T09:42:07;2.20;;;1.97;;
4047;SDS011;2038;51.728;6.674;2022-09-03T09:44:36;7.83;;;1.97;;
4047;SDS011;2038;51.728;6.674;2022-09-03T09:47:06;7.50;;;2.23;;
4047;SDS011;2038;51.728;6.674;2022-09-03T09:52:26;6.03;;;2.03;;
4047;SDS011;2038;51.728;6.674;2022-09-03T09:58:03;3.77;;;1.63;;
4047;SDS011;2038;51.728;6.674;2022-09-03T10:00:35;5.00;;;2.20;;
4047;SDS011;2038;51.728;6.674;2022-09-03T10:03:05;8.50;;;1.97;;
4047;SDS011;2038;51.728;6.674;2022-09-03T10:05:36;10.83;;;2.47;;
4047;SDS011;2038;51.728;6.674;2022-09-03T10:08:05;15.67;;;2.57;;
4047;SDS011;2038;51.728;6.674;2022-09-03T10:10:47;5.00;;;2.03;;
4047;SDS011;2038;51.728;6.674;2022-09-03T10:13:16;11.90;;;3.00;;
4047;SDS011;2038;51.728;6.674;2022-09-03T10:21:23;10.23;;;2.10;;
4047;SDS011;2038;51.728;6.674;2022-09-03T10:27:05;12.63;;;2.73;;
4047;SDS011;2038;51.728;6.674;2022-09-03T10:29:35;3.37;;;1.90;;
4047;SDS011;2038;51.728;6.674;2022-09-03T10:35:02;5.53;;;2.33;;
4047;SDS011;2038;51.728;6.674;2022-09-03T10:41:04;10.33;;;2.00;;
4047;SDS011;2038;51.728;6.674;2022-09-03T10:56:12;11.00;;;2.33;;
4047;SDS011;2038;51.728;6.674;2022-09-03T11:05:11;8.60;;;2.60;;
4047;SDS011;2038;51.728;6.674;2022-09-03T11:07:47;5.40;;;2.80;;
4047;SDS011;2038;51.728;6.674;2022-09-03T11:10:40;3.33;;;2.13;;
4047;SDS011;2038;51.728;6.674;2022-09-03T11:13:17;2.57;;;2.20;;
4047;SDS011;2038;51.728;6.674;2022-09-03T11:16:00;5.00;;;1.80;;
4047;SDS011;2038;51.728;6.674;2022-09-03T11:21:21;8.73;;;2.80;;
4047;SDS011;2038;51.728;6.674;2022-09-03T11:23:52;9.90;;;2.37;;
4047;SDS011;2038;51.728;6.674;2022-09-03T11:26:42;2.87;;;2.17;;
4047;SDS011;2038;51.728;6.674;2022-09-03T11:29:40;5.30;;;2.70;;
4047;SDS011;2038;51.728;6.674;2022-09-03T11:38:02;3.80;;;2.60;;
4047;SDS011;2038;51.728;6.674;2022-09-03T11:41:00;4.20;;;2.93;;
4047;SDS011;2038;51.728;6.674;2022-09-03T11:43:39;6.07;;;1.97;;
4047;SDS011;2038;51.728;6.674;2022-09-03T11:46:09;4.43;;;2.50;;
4047;SDS011;2038;51.728;6.674;2022-09-03T11:48:46;5.40;;;2.90;;
4047;SDS011;2038;51.728;6.674;2022-09-03T11:51:38;5.77;;;3.20;;
4047;SDS011;2038;51.728;6.674;2022-09-03T11:54:23;6.90;;;3.90;;
4047;SDS011;2038;51.728;6.674;2022-09-03T11:59:42;6.47;;;3.27;;
4047;SDS011;2038;51.728;6.674;2022-09-03T12:04:51;5.93;;;3.23;;
4047;SDS011;2038;51.728;6.674;2022-09-03T12:07:42;6.20;;;3.37;;
4047;SDS011;2038;51.728;6.674;2022-09-03T12:16:35;5.30;;;2.90;;
4047;SDS011;2038;51.728;6.674;2022-09-03T12:22:16;3.30;;;2.73;;
4047;SDS011;2038;51.728;6.674;2022-09-03T12:24:45;4.07;;;2.90;;
4047;SDS011;2038;51.728;6.674;2022-09-03T12:27:22;3.07;;;2.20;;
4047;SDS011;2038;51.728;6.674;2022-09-03T12:32:24;2.90;;;2.30;;
4047;SDS011;2038;51.728;6.674;2022-09-03T12:34:56;10.00;;;2.93;;
4047;SDS011;2038;51.728;6.674;2022-09-03T12:37:38;2.53;;;2.20;;
4047;SDS011;2038;51.728;6.674;2022-09-03T12:40:14;2.73;;;2.53;;
4047;SDS011;2038;51.728;6.674;2022-09-03T12:42:46;4.47;;;2.40;;
4047;SDS011;2038;51.728;6.674;2022-09-03T12:45:17;5.23;;;2.43;;
4047;SDS011;2038;51.728;6.674;2022-09-03T12:47:46;5.13;;;2.43;;
4047;SDS011;2038;51.728;6.674;2022-09-03T12:50:17;2.40;;;2.20;;
4047;SDS011;2038;51.728;6.674;2022-09-03T12:55:28;3.63;;;2.10;;
4047;SDS011;2038;51.728;6.674;2022-09-03T13:03:53;3.50;;;2.37;;
4047;SDS011;2038;51.728;6.674;2022-09-03T13:06:38;5.40;;;2.17;;
4047;SDS011;2038;51.728;6.674;2022-09-03T13:09:24;6.10;;;3.00;;
4047;SDS011;2038;51.728;6.674;2022-09-03T13:11:54;3.30;;;2.70;;
4047;SDS011;2038;51.728;6.674;2022-09-03T13:14:23;3.53;;;1.90;;
4047;SDS011;2038;51.728;6.674;2022-09-03T13:27:33;8.43;;;2.57;;
4047;SDS011;2038;51.728;6.674;2022-09-03T13:30:02;2.90;;;2.10;;
4047;SDS011;2038;51.728;6.674;2022-09-03T13:33:02;3.70;;;2.87;;
4047;SDS011;2038;51.728;6.674;2022-09-03T13:38:57;4.70;;;2.27;;
4047;SDS011;2038;51.728;6.674;2022-09-03T13:50:30;2.30;;;2.10;;
4047;SDS011;2038;51.728;6.674;2022-09-03T13:59:16;3.10;;;2.10;;
4047;SDS011;2038;51.728;6.674;2022-09-03T14:07:52;4.93;;;2.50;;
4047;SDS011;2038;51.728;6.674;2022-09-03T14:10:50;3.28;;;2.40;;
4047;SDS011;2038;51.728;6.674;2022-09-03T14:13:57;4.27;;;2.50;;
4047;SDS011;2038;51.728;6.674;2022-09-03T14:16:58;2.80;;;2.47;;
4047;SDS011;2038;51.728;6.674;2022-09-03T14:20:11;3.88;;;2.25;;
4047;SDS011;2038;51.728;6.674;2022-09-03T14:25:34;5.77;;;2.37;;
4047;SDS011;2038;51.728;6.674;2022-09-03T14:31:06;4.43;;;3.08;;
4047;SDS011;2038;51.728;6.674;2022-09-03T14:52:29;3.03;;;2.30;;
4047;SDS011;2038;51.728;6.674;2022-09-03T15:02:03;8.02;;;3.00;;
4047;SDS011;2038;51.728;6.674;2022-09-03T15:11:49;3.95;;;2.60;;
4047;SDS011;2038;51.728;6.674;2022-09-03T15:14:08;3.97;;;2.92;;
4047;SDS011;2038;51.728;6.674;2022-09-03T15:17:00;4.53;;;2.70;;
4047;SDS011;2038;51.728;6.674;2022-09-03T15:28:17;2.55;;;2.13;;
4047;SDS011;2038;51.728;6.674;2022-09-03T15:31:28;6.20;;;3.28;;
4047;SDS011;2038;51.728;6.674;2022-09-03T15:37:16;6.80;;;3.20;;
4047;SDS011;2038;51.728;6.674;2022-09-03T15:39:56;3.53;;;2.50;;
4047;SDS011;2038;51.728;6.674;2022-09-03T15:42:32;2.72;;;2.35;;
4047;SDS011;2038;51.728;6.674;2022-09-03T15:45:48;3.25;;;2.50;;
4047;SDS011;2038;51.728;6.674;2022-09-03T15:48:20;4.28;;;2.65;;
4047;SDS011;2038;51.728;6.674;2022-09-03T15:51:15;4.15;;;2.38;;
4047;SDS011;2038;51.728;6.674;2022-09-03T15:54:18;4.25;;;3.85;;
4047;SDS011;2038;51.728;6.674;2022-09-03T15:57:11;3.28;;;2.60;;
4047;SDS011;2038;51.728;6.674;2022-09-03T16:02:19;3.35;;;2.53;;
4047;SDS011;2038;51.728;6.674;2022-09-03T16:10:22;3.42;;;2.63;;
4047;SDS011;2038;51.728;6.674;2022-09-03T16:16:15;6.80;;;2.70;;
4047;SDS011;2038;51.728;6.674;2022-09-03T16:19:14;5.47;;;2.80;;
4047;SDS011;2038;51.728;6.674;2022-09-03T16:27:35;3.15;;;2.58;;
4047;SDS011;2038;51.728;6.674;2022-09-03T16:35:56;7.78;;;2.58;;
4047;SDS011;2038;51.728;6.674;2022-09-03T16:38:58;6.13;;;3.15;;
4047;SDS011;2038;51.728;6.674;2022-09-03T16:41:42;6.38;;;2.65;;
4047;SDS011;2038;51.728;6.674;2022-09-03T16:47:36;3.58;;;2.50;;
4047;SDS011;2038;51.728;6.674;2022-09-03T16:55:42;3.10;;;2.40;;
4047;SDS011;2038;51.728;6.674;2022-09-03T16:58:31;4.80;;;2.60;;
4047;SDS011;2038;51.728;6.674;2022-09-03T17:01:45;3.10;;;2.80;;
4047;SDS011;2038;51.728;6.674;2022-09-03T17:07:17;4.00;;;2.83;;
4047;SDS011;2038;51.728;6.674;2022-09-03T17:16:33;4.00;;;3.13;;
4047;SDS011;2038;51.728;6.674;2022-09-03T17:25:53;3.67;;;3.03;;
4047;SDS011;2038;51.728;6.674;2022-09-03T17:32:19;4.70;;;2.80;;
4047;SDS011;2038;51.728;6.674;2022-09-03T17:35:29;3.43;;;3.13;;
4047;SDS011;2038;51.728;6.674;2022-09-03T17:41:49;2.60;;;2.33;;
4047;SDS011;2038;51.728;6.674;2022-09-03T17:50:48;2.93;;;2.37;;
4047;SDS011;2038;51.728;6.674;2022-09-03T17:53:23;4.07;;;3.00;;
4047;SDS011;2038;51.728;6.674;2022-09-03T17:56:53;3.47;;;3.17;;
4047;SDS011;2038;51.728;6.674;2022-09-03T18:08:17;9.33;;;3.93;;
4047;SDS011;2038;51.728;6.674;2022-09-03T18:16:28;6.10;;;3.27;;
4047;SDS011;2038;51.728;6.674;2022-09-03T18:21:53;3.70;;;3.23;;
4047;SDS011;2038;51.728;6.674;2022-09-03T18:24:50;3.50;;;2.77;;
4047;SDS011;2038;51.728;6.674;2022-09-03T18:27:46;4.53;;;2.80;;
4047;SDS011;2038;51.728;6.674;2022-09-03T18:31:10;7.40;;;3.20;;
4047;SDS011;2038;51.728;6.674;2022-09-03T18:33:58;5.73;;;3.30;;
4047;SDS011;2038;51.728;6.674;2022-09-03T18:36:46;6.50;;;4.00;;
4047;SDS011;2038;51.728;6.674;2022-09-03T18:39:31;4.40;;;3.50;;
4047;SDS011;2038;51.728;6.674;2022-09-03T18:42:22;7.63;;;3.87;;
4047;SDS011;2038;51.728;6.674;2022-09-03T18:49:34;4.87;;;3.50;;
4047;SDS011;2038;51.728;6.674;2022-09-03T19:01:52;3.40;;;2.70;;
4047;SDS011;2038;51.728;6.674;2022-09-03T19:04:46;5.27;;;3.50;;
4047;SDS011;2038;51.728;6.674;2022-09-03T19:08:04;4.40;;;3.57;;
4047;SDS011;2038;51.728;6.674;2022-09-03T19:11:19;2.80;;;2.60;;
4047;SDS011;2038;51.728;6.674;2022-09-03T19:14:26;4.27;;;3.50;;
4047;SDS011;2038;51.728;6.674;2022-09-03T19:23:45;3.47;;;3.10;;
4047;SDS011;2038;51.728;6.674;2022-09-03T19:26:35;3.80;;;3.10;;
4047;SDS011;2038;51.728;6.674;2022-09-03T19:33:10;3.60;;;3.10;;
4047;SDS011;2038;51.728;6.674;2022-09-03T19:46:49;4.60;;;3.57;;
4047;SDS011;2038;51.728;6.674;2022-09-03T19:53:17;5.60;;;3.70;;
4047;SDS011;2038;51.728;6.674;2022-09-03T19:56:04;3.03;;;2.73;;
4047;SDS011;2038;51.728;6.674;2022-09-03T19:59:12;4.37;;;3.67;;
4047;SDS011;2038;51.728;6.674;2022-09-03T20:02:02;3.50;;;3.20;;
4047;SDS011;2038;51.728;6.674;2022-09-03T20:07:44;4.20;;;3.40;;
4047;SDS011;2038;51.728;6.674;2022-09-03T20:10:35;4.47;;;3.33;;
4047;SDS011;2038;51.728;6.674;2022-09-03T20:13:04;4.53;;;4.07;;
4047;SDS011;2038;51.728;6.674;2022-09-03T20:15:49;7.03;;;3.77;;
4047;SDS011;2038;51.728;6.674;2022-09-03T20:21:21;4.40;;;3.33;;
4047;SDS011;2038;51.728;6.674;2022-09-03T20:26:40;3.87;;;3.37;;
4047;SDS011;2038;51.728;6.674;2022-09-03T20:29:38;6.80;;;3.27;;
4047;SDS011;2038;51.728;6.674;2022-09-03T20:41:17;5.83;;;3.13;;
4047;SDS011;2038;51.728;6.674;2022-09-03T20:44:46;3.87;;;3.47;;
4047;SDS011;2038;51.728;6.674;2022-09-03T20:47:41;4.43;;;4.00;;
4047;SDS011;2038;51.728;6.674;2022-09-03T20:56:53;3.70;;;2.90;;
4047;SDS011;2038;51.728;6.674;2022-09-03T20:59:07;4.73;;;4.23;;
4047;SDS011;2038;51.728;6.674;2022-09-03T21:01:47;4.00;;;3.70;;
4047;SDS011;2038;51.728;6.674;2022-09-03T21:13:33;8.73;;;4.20;;
4047;SDS011;2038;51.728;6.674;2022-09-03T21:16:25;3.53;;;3.23;;
4047;SDS011;2038;51.728;6.674;2022-09-03T21:25:34;3.93;;;3.63;;
4047;SDS011;2038;51.728;6.674;2022-09-03T21:28:32;5.20;;;4.17;;
4047;SDS011;2038;51.728;6.674;2022-09-03T21:31:18;7.50;;;3.83;;
4047;SDS011;2038;51.728;6.674;2022-09-03T21:34:07;4.10;;;3.63;;
4047;SDS011;2038;51.728;6.674;2022-09-03T21:37:05;4.10;;;3.70;;
4047;SDS011;2038;51.728;6.674;2022-09-03T21:42:53;3.73;;;3.43;;
4047;SDS011;2038;51.728;6.674;2022-09-03T21:45:26;4.10;;;3.70;;
4047;SDS011;2038;51.728;6.674;2022-09-03T21:48:15;3.67;;;3.37;;
4047;SDS011;2038;51.728;6.674;2022-09-03T21:50:59;3.43;;;3.13;;
4047;SDS011;2038;51.728;6.674;2022-09-03T21:53:39;3.77;;;3.37;;
4047;SDS011;2038;51.728;6.674;2022-09-03T22:02:31;4.10;;;3.70;;
4047;SDS011;2038;51.728;6.674;2022-09-03T22:04:58;4.37;;;3.57;;
4047;SDS011;2038;51.728;6.674;2022-09-03T22:13:27;3.70;;;3.37;;
4047;SDS011;2038;51.728;6.674;2022-09-03T22:16:05;4.70;;;2.60;;
4047;SDS011;2038;51.728;6.674;2022-09-03T22:18:56;4.00;;;3.60;;
4047;SDS011;2038;51.728;6.674;2022-09-03T22:21:30;4.13;;;3.43;;
4047;SDS011;2038;51.728;6.674;2022-09-03T22:27:29;3.80;;;3.40;;
4047;SDS011;2038;51.728;6.674;2022-09-03T22:30:14;3.37;;;3.07;;
4047;SDS011;2038;51.728;6.674;2022-09-03T22:36:00;6.37;;;3.83;;
4047;SDS011;2038;51.728;6.674;2022-09-03T22:44:32;4.13;;;3.60;;
4047;SDS011;2038;51.728;6.674;2022-09-03T22:47:34;4.63;;;3.00;;
4047;SDS011;2038;51.728;6.674;2022-09-03T22:50:27;5.10;;;3.53;;
4047;SDS011;2038;51.728;6.674;2022-09-03T22:56:15;3.80;;;3.40;;
4047;SDS011;2038;51.728;6.674;2022-09-03T22:58:49;9.00;;;4.40;;
4047;SDS011;2038;51.728;6.674;2022-09-03T23:07:38;6.03;;;4.20;;
4047;SDS011;2038;51.728;6.674;2022-09-03T23:10:18;5.13;;;4.47;;
4047;SDS011;2038;51.728;6.674;2022-09-03T23:15:44;4.37;;;3.97;;
4047;SDS011;2038;51.728;6.674;2022-09-03T23:18:22;4.50;;;4.10;;
4047;SDS011;2038;51.728;6.674;2022-09-03T23:21:05;8.30;;;5.57;;
4047;SDS011;2038;51.728;6.674;2022-09-03T23:29:12;5.60;;;5.03;;
4047;SDS011;2038;51.728;6.674;2022-09-03T23:32:16;4.57;;;4.10;;
4047;SDS011;2038;51.728;6.674;2022-09-03T23:34:42;5.03;;;4.53;;
4047;SDS011;2038;51.728;6.674;2022-09-03T23:37:22;6.60;;;4.97;;
4047;SDS011;2038;51.728;6.674;2022-09-03T23:43:08;5.33;;;4.77;;
4047;SDS011;2038;51.728;6.674;2022-09-03T23:49:22;6.97;;;6.00;;
4047;SDS011;2038;51.728;6.674;2022-09-03T23:55:26;8.93;;;5.10;;
